x

Freeport, Tx - 60 Nm South Of Freeport, Tx (42019) Wave Buoy

3:50pm - Sun 29th Mar 2015 All times are CDT. -5 hours from GMT.

  • Sig Wave height 4.6ft
  • Swell Direction
  • Peak Period 7s
  • Average Period 5s
  • Wind
    16mph, 18mph gusts
  • Sea Temp 70°f
  • Air Temp 72°f
  • Sea Pressure 1021mb
  • Freeport, Tx - 60 Nm South Of Freeport, Tx
  • Freeport, Tx - 60 Nm South Of Freeport, Tx

More Historic Weather Station data

Upgrade to MSW Pro to gain access to the past 30 days of data for over 8000 Wavebouys and Weather Stations around the globe.

Join Pro

Comparision Forecast

View Surf forecast
   
Sun 03/29 3:50pm 4.5ft 7s 5s 16 18 mph 1021mb 70f 72f
2:50pm 4.5ft 7s 5s 18 20 mph 1021.4mb 70f 72f
1:50pm 4.5ft 7s 5s 16 18 mph 1022.1mb 70f 72f
12:50pm 4.5ft 6s 5s 16 18 mph 1022.5mb 70f 72f
11:50am 4.5ft 6s 5s 16 18 mph 1022.9mb 70f 72f
10:50am 4.5ft 6s 5s 16 18 mph 1022.9mb 70f 72f
9:50am 5ft 6s 5s 16 18 mph 1022.7mb 69f 71f
8:50am 5ft 6s 5s 16 20 mph 1021.7mb 69f 71f
7:50am 5ft 6s 5s 18 22 mph 1021.1mb 69f 71f
6:50am 5ft 6s 5s 20 22 mph 1020.7mb 69f 70f
5:50am 5ft 6s 5s 20 25 mph 1019.9mb 69f 70f
4:50am 5ft 6s 5s 22 27 mph 1019.6mb 69f 70f
3:50am 4.5ft 6s 5s 20 25 mph 1019.8mb 69f 70f
2:50am 4.5ft 5s 4s 20 25 mph 1020.3mb 69f 70f
1:50am 3.5ft 5s 4s 22 27 mph 1020.5mb 70f 70f
12:50am 3.5ft 5s 4s 20 25 mph 1020.7mb 70f 71f
Sat 03/28 11:50pm 3ft 5s 4s 20 22 mph 1020.6mb 70f 71f
10:50pm 3ft 5s 4s 18 22 mph 1020.9mb 70f 71f
9:50pm 2.5ft 5s 4s 18 20 mph 1020.9mb 70f 71f
8:50pm 2.5ft 5s 4s 18 20 mph 1020.5mb 70f 70f
7:50pm 2.5ft 5s 4s 18 20 mph 1020.1mb 70f 70f
6:50pm 2.5ft 5s 4s 16 20 mph 1020.3mb 70f 71f
5:50pm 2.5ft 5s 4s 16 18 mph 1020.4mb 70f 71f
4:50pm 2.5ft 5s 4s 16 18 mph 1020.6mb 70f 71f
3:50pm 2.5ft 5s 4s 16 18 mph 1021mb 70f 71f
2:50pm 2.5ft 5s 4s 11 16 mph 1021.6mb 70f 70f
1:50pm 2.5ft 5s 4s 13 16 mph 1022mb 70f 70f
12:50pm 2.5ft 4s 4s 13 16 mph 1022.5mb 69f 70f
11:50am 2.5ft 4s 4s 13 16 mph 1022.8mb 69f 70f
10:50am 2.5ft 4s 4s 16 20 mph 1022.9mb 69f 70f
9:50am 2ft 4s 3s 18 20 mph 1022.5mb 69f 70f
8:50am 1.6ft 3s 3s 18 20 mph 1022.3mb 69f 70f
7:50am 1.3ft 3s 3s 13 16 mph 1021.9mb 69f 70f
6:50am 1.3ft 3s 3s 13 16 mph 1021.4mb 69f 70f
5:50am 1.3ft 3s 3s 11 13 mph 1020.7mb 69f 70f
4:50am 1.3ft 3s 3s 11 13 mph 1020.3mb 69f 70f
3:50am 1.3ft 3s 4s 9 11 mph 1020.5mb 69f 69f
2:50am 1.3ft 7s 4s 7 9 mph 1021.1mb 69f 69f
1:50am 1.6ft 3s 3s 11 13 mph 1021.5mb 69f 69f
12:50am 1.3ft 8s 3s 16
mph
1021.7mb 69f 69f
Fri 03/27 11:50pm 1.3ft 7s 4s 13 16 mph 1022.1mb 69f 69f
10:50pm 1.3ft 6s 4s 11 13 mph 1022.3mb 69f 69f
9:50pm 1.6ft 7s 4s 9 11 mph 1022.1mb 69f 69f
8:50pm 1.6ft 6s 4s 9 11 mph 1021.6mb 69f 68f
7:50pm 2ft 6s 4s 9
mph
1021mb 69f 67f
6:50pm 2ft 6s 4s 9 11 mph 1020.9mb 69f 67f
5:50pm 2.5ft 6s 4s 9 11 mph 1020.9mb 69f 67f
4:50pm 2.5ft 6s 4s 11
mph
1021mb 69f 65f
3:50pm 2.5ft 6s 4s 13 16 mph 1021.3mb 69f 65f
2:50pm 3ft 6s 5s 13 18 mph 1022mb 69f 64f
1:50pm 3.5ft 6s 5s 13 16 mph 1022.2mb 69f 63f
12:50pm 3.5ft 6s 5s 11 13 mph 1022.7mb 69f 63f
11:50am 4ft 7s 5s 13 16 mph 1023mb 69f 63f
10:50am 4.5ft 7s 5s 13 16 mph 1023.2mb 69f 63f
9:50am 4.5ft 7s 5s 13 16 mph 1022.2mb 69f 63f
8:50am 4.5ft 7s 5s 13 16 mph 1021.8mb 69f 63f
7:50am 5ft 6s 5s 13 18 mph 1021mb 69f 63f
6:50am 6ft 7s 5s 20 25 mph 1020.9mb 69f 63f
5:50am 6ft 7s 5s 22 27 mph 1020.3mb 69f 63f
4:50am 6ft 7s 5s 25 29 mph 1020.3mb 69f 63f
3:50am 5.5ft 7s 5s 22 27 mph 1020.2mb 69f 64f
2:50am 6ft 6s 5s 22 29 mph 1019.8mb 69f 64f
1:50am 5.5ft 6s 5s 20 27 mph 1019.6mb 69f 64f
12:50am 6ft 6s 5s 25 31 mph 1018.9mb 69f 65f
Thu 03/26 11:50pm 5ft 5s 5s 27 31 mph 1018.2mb 69f 66f
10:50pm 4.5ft 5s 4s 20 25 mph 1018.9mb 70f 66f
9:50pm 5ft 5s 4s 20 22 mph 1017.1mb 70f 66f
8:50pm 5ft 5s 4s 22 27 mph 1015.1mb 70f 67f
7:50pm 5ft 6s 5s 22 27 mph 1014.8mb 70f 67f
6:50pm 5ft 5s 5s 25 29 mph 1015.4mb 70f 66f
5:50pm 5ft 6s 5s 22 27 mph 1015mb 70f 66f
4:50pm 5.5ft 6s 5s 25 29 mph 1013.7mb 70f 65f
3:50pm 5ft 5s 4s 22 27 mph 1013.8mb 70f 65f
2:50pm 4ft 5s 4s 27 29 mph 1013.1mb 70f 65f
1:50pm 2.5ft 4s 4s 27 31 mph 1013.1mb 70f 64f
12:50pm 2ft 5s 4s 25 29 mph 1013.7mb 71f 65f
11:50am 2ft 5s 4s 4
mph
1013.8mb 71f 72f
10:50am 2.5ft 5s 4s 4
mph
1013.4mb 71f 71f
9:50am 2.5ft 5s 4s 4 7 mph 1013.4mb 71f 71f
8:50am 2.5ft 5s 4s  -  2 mph 1012.6mb 71f 72f
7:50am 2.5ft 5s 4s 4
mph
1012mb 71f 71f
6:50am 2.5ft 5s 4s 9 11 mph 1010.9mb 71f 72f
5:50am 2.5ft 5s 4s 13 18 mph 1010mb 71f 72f
4:50am 2.5ft 5s 4s 9
mph
1011.4mb 71f 72f
3:50am 2.5ft 5s 4s 9 11 mph 1011.8mb 71f 72f
2:50am 3ft 5s 4s 9 11 mph 1012.3mb 71f 72f
1:50am 2.5ft 5s 4s 7
mph
1012.9mb 71f 72f
12:50am 2.5ft 5s 4s 11
mph
1013.3mb 71f 72f
Wed 03/25 11:50pm 2.5ft 5s 4s 9 11 mph 1013.3mb 71f 71f
10:50pm 3ft 5s 4s 7 9 mph 1013.6mb 71f 72f